createdAt,value
2019-03-25T00:02:21.504Z,56.41
2019-03-25T00:05:25.951Z,56.13
2019-03-25T00:08:30.657Z,56.13
2019-03-25T00:11:35.385Z,56.38
2019-03-25T00:14:39.835Z,56.34
2019-03-25T00:17:44.287Z,55.96
2019-03-25T00:20:49.068Z,55.63
2019-03-25T00:23:53.516Z,55.72
2019-03-25T00:26:58.220Z,55.32
2019-03-25T00:30:02.671Z,55.70
2019-03-25T00:33:07.109Z,53.61
2019-03-25T00:36:11.902Z,52.97
2019-03-25T00:39:16.351Z,52.62
2019-03-25T00:42:21.158Z,51.28
2019-03-25T00:45:25.601Z,49.59
2019-03-25T00:48:30.034Z,48.14
2019-03-25T00:51:34.839Z,48.05
2019-03-25T00:54:49.542Z,49.08
2019-03-25T00:57:45.423Z,49.18
2019-03-25T01:00:49.870Z,49.58
2019-03-25T01:03:54.307Z,51.08
2019-03-25T01:06:58.760Z,51.76
2019-03-25T01:10:04.479Z,52.58
2019-03-25T01:13:09.286Z,52.65
2019-03-25T01:16:13.966Z,52.26
2019-03-25T01:19:18.852Z,50.51
2019-03-25T01:22:23.294Z,49.41
2019-03-25T01:25:28.105Z,47.27
2019-03-25T01:28:32.536Z,46.96
2019-03-25T01:31:36.969Z,47.34
2019-03-25T01:34:41.677Z,47.74
2019-03-25T01:37:46.119Z,47.76
2019-03-25T01:40:50.556Z,47.87
2019-03-25T01:43:55.265Z,48.49
2019-03-25T01:46:59.705Z,48.44
2019-03-25T01:50:06.975Z,49.37
2019-03-25T01:53:11.417Z,49.19
2019-03-25T01:56:15.853Z,49.24
2019-03-25T01:59:20.286Z,48.93
2019-03-25T02:02:25.339Z,49.29
2019-03-25T02:05:30.115Z,49.40
2019-03-25T02:08:34.546Z,49.61
2019-03-25T02:11:38.991Z,50.12
2019-03-25T02:14:43.426Z,49.90
2019-03-25T02:17:47.869Z,50.02
2019-03-25T02:20:52.366Z,50.61
2019-03-25T02:23:56.797Z,50.98
2019-03-25T02:27:01.593Z,51.39
2019-03-25T02:30:09.804Z,50.25
2019-03-25T02:33:14.639Z,50.20
2019-03-25T02:36:19.374Z,50.44
2019-03-25T02:39:24.100Z,51.19
2019-03-25T02:42:28.538Z,51.25
2019-03-25T02:45:33.256Z,50.47
2019-03-25T02:48:37.986Z,50.46
2019-03-25T02:51:42.426Z,50.45
2019-03-25T02:54:47.141Z,49.47
2019-03-25T02:57:51.873Z,50.18
2019-03-25T03:00:56.318Z,50.81
2019-03-25T03:04:00.753Z,50.55
2019-03-25T03:07:05.462Z,52.27
2019-03-25T03:10:10.344Z,52.81
2019-03-25T03:13:15.018Z,54.20
2019-03-25T03:16:19.777Z,54.62
2019-03-25T03:19:24.176Z,54.14
2019-03-25T03:22:28.908Z,53.85
2019-03-25T03:25:33.327Z,52.48
2019-03-25T03:28:38.054Z,52.38
2019-03-25T03:31:42.491Z,51.77
2019-03-25T03:34:47.208Z,51.84
2019-03-25T03:37:51.944Z,52.55
2019-03-25T03:40:56.369Z,51.64
2019-03-25T03:44:01.016Z,51.07
2019-03-25T03:47:05.427Z,51.05
2019-03-25T03:50:14.008Z,51.27
2019-03-25T03:53:17.733Z,51.61
2019-03-25T03:56:22.797Z,51.72
2019-03-25T03:59:29.059Z,51.48
2019-03-25T04:02:33.678Z,51.91
2019-03-25T04:05:38.110Z,50.99
2019-03-25T04:08:42.949Z,51.58
2019-03-25T04:11:47.388Z,51.60
2019-03-25T04:14:52.090Z,52.11
2019-03-25T04:17:56.761Z,52.13
2019-03-25T04:21:01.448Z,52.10
2019-03-25T04:24:06.188Z,52.35
2019-03-25T04:27:11.019Z,53.52
2019-03-25T04:30:15.963Z,54.61
2019-03-25T04:33:20.679Z,55.89
2019-03-25T04:36:25.119Z,56.15
2019-03-25T04:39:29.559Z,56.35
2019-03-25T04:42:33.989Z,56.10
2019-03-25T04:45:38.683Z,57.31
2019-03-25T04:48:43.121Z,57.55
2019-03-25T04:51:47.841Z,57.62
2019-03-25T04:54:52.568Z,58.34
2019-03-25T04:57:57.296Z,58.53
2019-03-25T05:01:02.025Z,58.77
2019-03-25T05:04:06.757Z,58.91
2019-03-25T05:07:11.190Z,59.31
2019-03-25T05:10:16.016Z,58.71
2019-03-25T05:13:20.469Z,59.28
2019-03-25T05:16:24.903Z,59.27
2019-03-25T05:19:30.978Z,59.51
2019-03-25T05:22:35.414Z,59.98
2019-03-25T05:25:40.174Z,60.72
2019-03-25T05:28:44.621Z,60.58
2019-03-25T05:31:49.054Z,60.21
2019-03-25T05:34:53.762Z,60.22
2019-03-25T05:37:58.490Z,61.10
2019-03-25T05:41:03.194Z,60.35
2019-03-25T05:44:07.630Z,60.62
2019-03-25T05:47:12.382Z,60.93
2019-03-25T05:50:16.810Z,61.18
2019-03-25T05:53:21.331Z,61.65
2019-03-25T05:56:25.753Z,61.61
2019-03-25T05:59:30.211Z,61.79
2019-03-25T06:02:34.905Z,61.85
2019-03-25T06:05:39.627Z,61.82
2019-03-25T06:08:44.073Z,61.46
2019-03-25T06:11:48.501Z,60.97
2019-03-25T06:14:52.934Z,60.89
2019-03-25T06:17:57.375Z,58.98
2019-03-25T06:21:02.051Z,59.07
2019-03-25T06:24:08.567Z,56.11
2019-03-25T06:27:14.305Z,52.92
2019-03-25T06:30:19.301Z,49.79
2019-03-25T06:33:23.750Z,47.38
2019-03-25T06:36:28.195Z,45.49
2019-03-25T06:39:32.641Z,42.45
2019-03-25T06:42:37.077Z,41.69
2019-03-25T06:45:41.522Z,38.99
2019-03-25T06:48:46.272Z,36.69
2019-03-25T06:51:50.720Z,36.42
2019-03-25T06:54:55.235Z,35.74
2019-03-25T06:57:59.956Z,37.84
2019-03-25T07:01:04.788Z,39.91
2019-03-25T07:04:09.242Z,42.12
2019-03-25T07:07:13.758Z,42.98
2019-03-25T07:10:33.265Z,44.25
2019-03-25T07:13:38.151Z,44.60
2019-03-25T07:16:42.602Z,45.92
2019-03-25T07:19:47.048Z,46.76
2019-03-25T07:22:51.480Z,47.89
2019-03-25T07:25:55.925Z,48.52
2019-03-25T07:29:00.351Z,47.43
2019-03-25T07:32:05.108Z,47.07
2019-03-25T07:35:09.783Z,48.15
2019-03-25T07:38:14.548Z,48.47
2019-03-25T07:41:19.390Z,47.05
2019-03-25T07:44:23.831Z,47.92
2019-03-25T07:47:28.278Z,47.88
2019-03-25T07:50:32.719Z,47.97
2019-03-25T07:53:37.150Z,48.42
2019-03-25T07:56:41.601Z,48.13
2019-03-25T07:59:46.354Z,48.40
2019-03-25T08:02:50.767Z,47.98
2019-03-25T08:05:55.214Z,48.32
2019-03-25T08:09:04.022Z,48.81
2019-03-25T08:12:05.835Z,48.25
2019-03-25T08:15:10.501Z,47.56
2019-03-25T08:18:15.231Z,47.42
2019-03-25T08:21:19.966Z,46.85
2019-03-25T08:24:24.395Z,45.96
2019-03-25T08:27:28.839Z,45.95
2019-03-25T08:30:33.452Z,45.95
2019-03-25T08:33:37.885Z,45.97
2019-03-25T08:36:42.396Z,45.30
2019-03-25T08:39:46.843Z,45.01
2019-03-25T08:42:51.573Z,46.06
2019-03-25T08:45:56.275Z,46.55
2019-03-25T08:49:00.703Z,46.26
2019-03-25T08:52:05.148Z,45.87
2019-03-25T08:55:10.296Z,46.92
2019-03-25T08:58:14.747Z,47.64
2019-03-25T09:01:19.518Z,46.86
2019-03-25T09:04:24.250Z,46.32
2019-03-25T09:07:28.984Z,45.63
2019-03-25T09:10:33.408Z,47.08
2019-03-25T09:13:38.145Z,47.26
2019-03-25T09:16:42.583Z,47.70
2019-03-25T09:19:47.013Z,48.80
2019-03-25T09:22:51.462Z,48.90
2019-03-25T09:25:56.240Z,49.10
2019-03-25T09:29:00.994Z,47.01
2019-03-25T09:32:05.426Z,47.67
2019-03-25T09:35:10.710Z,46.76
2019-03-25T09:38:15.148Z,48.48
2019-03-25T09:41:19.760Z,48.08
2019-03-25T09:44:24.521Z,48.49
2019-03-25T09:47:28.963Z,50.26
2019-03-25T09:50:33.401Z,50.74
2019-03-25T09:53:37.847Z,50.84
2019-03-25T09:56:42.298Z,50.84
2019-03-25T09:59:46.723Z,51.24
2019-03-25T10:02:51.473Z,51.65
2019-03-25T10:05:56.273Z,52.01
2019-03-25T10:09:00.718Z,51.67
2019-03-25T10:12:05.501Z,51.72
2019-03-25T10:15:10.469Z,50.44
2019-03-25T10:18:14.913Z,51.56
2019-03-25T10:21:19.339Z,51.11
2019-03-25T10:24:27.852Z,49.92
2019-03-25T10:27:30.240Z,49.99
2019-03-25T10:30:35.069Z,49.26
2019-03-25T10:33:39.803Z,50.27
2019-03-25T10:36:44.634Z,50.27
2019-03-25T10:39:49.366Z,49.42
2019-03-25T10:42:53.803Z,50.98
2019-03-25T10:45:58.247Z,50.10
2019-03-25T10:49:02.757Z,49.65
2019-03-25T10:52:07.191Z,49.43
2019-03-25T10:55:11.776Z,49.75
2019-03-25T10:58:16.217Z,47.01
2019-03-25T11:01:20.945Z,44.63
2019-03-25T11:04:25.678Z,46.23
2019-03-25T11:07:30.447Z,44.93
2019-03-25T11:10:34.920Z,43.38
2019-03-25T11:13:39.362Z,42.62
2019-03-25T11:16:43.810Z,42.98
2019-03-25T11:19:48.262Z,44.60
2019-03-25T11:22:53.036Z,49.60
2019-03-25T11:25:57.528Z,53.99
2019-03-25T11:29:08.418Z,56.32
2019-03-25T11:32:08.765Z,57.63
2019-03-25T11:35:13.748Z,53.04
2019-03-25T11:38:18.261Z,49.86
2019-03-25T11:41:22.698Z,44.87
2019-03-25T11:44:29.010Z,47.36
2019-03-25T11:47:33.556Z,48.63
2019-03-25T11:50:37.987Z,49.15
2019-03-25T11:53:42.440Z,49.42
2019-03-25T11:56:47.123Z,47.48
2019-03-25T11:59:51.850Z,47.67
2019-03-25T12:02:56.586Z,47.56
2019-03-25T12:06:01.316Z,44.07
2019-03-25T12:09:08.904Z,43.19
2019-03-25T12:12:13.340Z,40.85
2019-03-25T12:15:17.857Z,41.05
2019-03-25T12:18:22.316Z,45.14
2019-03-25T12:21:27.021Z,46.72
2019-03-25T12:24:31.459Z,50.44
2019-03-25T12:27:36.211Z,53.99
2019-03-25T12:30:40.655Z,52.96
2019-03-25T12:33:45.095Z,50.58
2019-03-25T12:36:49.527Z,46.33
2019-03-25T12:39:53.969Z,44.04
2019-03-25T12:42:58.701Z,43.39
2019-03-25T12:46:03.430Z,44.01
2019-03-25T12:49:07.868Z,47.75
2019-03-25T12:52:12.292Z,56.52
2019-03-25T12:55:16.793Z,60.62
2019-03-25T12:58:21.228Z,65.29
2019-03-25T13:01:25.962Z,68.54
2019-03-25T13:04:30.685Z,69.39
2019-03-25T13:07:35.436Z,67.09
2019-03-25T13:10:40.157Z,68.38
2019-03-25T13:13:44.588Z,59.60
2019-03-25T13:16:49.024Z,57.69
2019-03-25T13:19:53.544Z,57.21
2019-03-25T13:22:57.980Z,58.20
2019-03-25T13:26:02.431Z,55.16
2019-03-25T13:29:06.869Z,55.64
2019-03-25T13:32:11.628Z,52.11
2019-03-25T13:35:16.065Z,52.74
2019-03-25T13:38:20.509Z,49.21
2019-03-25T13:41:24.958Z,48.70
2019-03-25T13:44:29.735Z,46.03
2019-03-25T13:47:34.489Z,45.34
2019-03-25T13:50:38.933Z,45.08
2019-03-25T13:53:43.372Z,44.41
2019-03-25T13:56:48.152Z,42.05
2019-03-25T14:00:02.691Z,42.32
2019-03-25T14:02:58.763Z,40.01
2019-03-25T14:06:03.466Z,41.32
2019-03-25T14:09:08.936Z,42.32
2019-03-25T14:12:13.640Z,49.19
2019-03-25T14:15:18.368Z,56.71
2019-03-25T14:18:22.813Z,62.18
2019-03-25T14:21:27.830Z,64.50
2019-03-25T14:24:32.258Z,67.82
2019-03-25T14:27:36.984Z,67.37
2019-03-25T14:30:41.411Z,68.52
2019-03-25T14:33:46.141Z,68.44
2019-03-25T14:36:50.575Z,67.72
2019-03-25T14:39:55.291Z,69.68
2019-03-25T14:43:00.056Z,64.48
2019-03-25T14:46:04.554Z,61.60
2019-03-25T14:49:09.951Z,60.49
2019-03-25T14:52:14.511Z,58.61
2019-03-25T14:55:18.946Z,59.66
2019-03-25T14:58:23.386Z,56.82
2019-03-25T15:01:28.101Z,58.51
2019-03-25T15:04:32.833Z,53.47
2019-03-25T15:07:37.272Z,54.03
2019-03-25T15:10:41.988Z,50.76
2019-03-25T15:13:46.429Z,48.06
2019-03-25T15:16:50.859Z,51.56
2019-03-25T15:19:55.375Z,50.63
2019-03-25T15:22:59.816Z,49.58
2019-03-25T15:26:04.255Z,49.73
2019-03-25T15:29:08.703Z,49.03
2019-03-25T15:32:13.150Z,49.82
2019-03-25T15:35:17.587Z,49.07
2019-03-25T15:38:22.031Z,50.19
2019-03-25T15:41:26.463Z,51.89
2019-03-25T15:44:30.966Z,52.49
2019-03-25T15:47:35.491Z,51.75
2019-03-25T15:50:40.012Z,50.43
2019-03-25T15:53:44.738Z,51.01
2019-03-25T15:56:49.168Z,51.55
2019-03-25T15:59:53.889Z,50.01
2019-03-25T16:02:58.621Z,48.67
2019-03-25T16:06:03.045Z,49.45
2019-03-25T16:09:09.119Z,51.00
2019-03-25T16:12:13.550Z,51.36
2019-03-25T16:15:40.038Z,49.07
2019-03-25T16:18:44.470Z,49.02
2019-03-25T16:21:49.237Z,49.09
2019-03-25T16:24:53.674Z,46.83
2019-03-25T16:27:58.191Z,46.79
2019-03-25T16:31:02.629Z,46.83
2019-03-25T16:34:07.334Z,49.52
2019-03-25T16:37:11.767Z,49.29
2019-03-25T16:40:16.484Z,49.42
2019-03-25T16:43:20.921Z,50.53
2019-03-25T16:46:25.633Z,50.86
2019-03-25T16:49:30.068Z,50.29
2019-03-25T16:52:34.794Z,50.77
2019-03-25T16:55:39.227Z,51.43
2019-03-25T16:58:43.947Z,51.25
2019-03-25T17:01:48.381Z,50.81
2019-03-25T17:04:53.102Z,52.01
2019-03-25T17:07:57.552Z,51.95
2019-03-25T17:11:02.329Z,52.47
2019-03-25T17:14:07.503Z,53.14
2019-03-25T17:17:12.231Z,54.33
2019-03-25T17:20:16.745Z,54.48
2019-03-25T17:23:21.493Z,55.22
2019-03-25T17:26:25.912Z,55.33
2019-03-25T17:29:30.367Z,55.53
2019-03-25T17:32:34.799Z,55.90
2019-03-25T17:35:39.231Z,54.87
2019-03-25T17:38:43.666Z,55.68
2019-03-25T17:41:48.169Z,55.58
2019-03-25T17:44:52.635Z,56.90
2019-03-25T17:47:57.385Z,58.25
2019-03-25T17:51:02.118Z,59.74
2019-03-25T17:54:06.848Z,60.51
2019-03-25T17:57:11.585Z,60.73
2019-03-25T18:00:19.692Z,59.62
2019-03-25T18:03:24.142Z,60.46
2019-03-25T18:06:28.756Z,59.83
2019-03-25T18:09:33.597Z,59.96
2019-03-25T18:12:39.031Z,60.15
2019-03-25T18:15:43.774Z,60.15
2019-03-25T18:18:48.269Z,58.10
2019-03-25T18:21:53.022Z,59.45
2019-03-25T18:24:57.460Z,59.83
2019-03-25T18:28:02.171Z,59.51
2019-03-25T18:31:06.898Z,60.61
2019-03-25T18:34:11.632Z,60.77
2019-03-25T18:37:16.354Z,62.15
2019-03-25T18:40:20.917Z,61.84
2019-03-25T18:43:25.335Z,62.49
2019-03-25T18:46:29.831Z,61.92
2019-03-25T18:49:34.296Z,61.80
2019-03-25T18:52:38.714Z,62.46
2019-03-25T18:55:43.171Z,62.82
2019-03-25T18:58:47.929Z,62.70
2019-03-25T19:01:54.648Z,61.95
2019-03-25T19:04:58.549Z,62.58
2019-03-25T19:08:04.660Z,61.72
2019-03-25T19:11:09.444Z,61.92
2019-03-25T19:14:13.871Z,60.94
2019-03-25T19:17:18.369Z,62.56
2019-03-25T19:20:22.822Z,62.26
2019-03-25T19:23:27.232Z,61.24
2019-03-25T19:26:31.894Z,60.02
2019-03-25T19:29:38.156Z,59.12
2019-03-25T19:32:43.107Z,57.73
2019-03-25T19:35:47.904Z,59.25
2019-03-25T19:38:52.331Z,59.20
2019-03-25T19:41:57.050Z,60.09
2019-03-25T19:45:01.480Z,59.89
2019-03-25T19:48:05.932Z,60.65
2019-03-25T19:51:10.392Z,61.61
2019-03-25T19:54:15.031Z,62.05
2019-03-25T19:57:19.906Z,62.91
2019-03-25T20:00:37.413Z,63.61
2019-03-25T20:03:41.832Z,63.65
2019-03-25T20:06:46.262Z,64.37
2019-03-25T20:09:51.026Z,65.41
2019-03-25T20:12:55.706Z,67.16
2019-03-25T20:16:00.582Z,69.29
2019-03-25T20:19:05.009Z,69.78
2019-03-25T20:22:09.465Z,68.92
2019-03-25T20:25:13.917Z,69.63
2019-03-25T20:28:18.647Z,70.44
2019-03-25T20:31:23.198Z,70.02
2019-03-25T20:34:27.945Z,71.83
2019-03-25T20:37:32.444Z,71.40
2019-03-25T20:40:37.203Z,72.53
2019-03-25T20:43:41.621Z,71.23
2019-03-25T20:46:46.346Z,72.12
2019-03-25T20:49:51.127Z,72.33
2019-03-25T20:52:55.567Z,71.86
2019-03-25T20:56:00.334Z,72.13
2019-03-25T20:59:05.204Z,71.96
2019-03-25T21:02:09.967Z,71.95
2019-03-25T21:05:14.888Z,71.74
2019-03-25T21:08:19.306Z,71.54
2019-03-25T21:11:24.063Z,72.43
2019-03-25T21:14:28.513Z,71.67
2019-03-25T21:17:33.204Z,72.39
2019-03-25T21:20:38.022Z,73.00
2019-03-25T21:23:43.186Z,72.89
2019-03-25T21:26:47.928Z,73.26
2019-03-25T21:29:52.404Z,73.18
2019-03-25T21:32:58.554Z,72.82
2019-03-25T21:36:03.024Z,71.83
2019-03-25T21:39:08.166Z,73.19
2019-03-25T21:42:12.636Z,73.34
2019-03-25T21:45:17.329Z,73.11
2019-03-25T21:48:21.814Z,73.19
2019-03-25T21:51:26.326Z,73.82
2019-03-25T21:54:31.150Z,74.50
2019-03-25T21:57:35.893Z,74.04
2019-03-25T22:00:40.261Z,73.42
2019-03-25T22:03:44.721Z,73.53
2019-03-25T22:06:49.129Z,73.30
2019-03-25T22:09:53.562Z,73.87
2019-03-25T22:12:58.362Z,73.90
2019-03-25T22:16:05.431Z,73.42
2019-03-25T22:19:10.190Z,74.30
2019-03-25T22:22:14.623Z,73.99
2019-03-25T22:25:19.441Z,73.96
2019-03-25T22:28:23.890Z,73.95
2019-03-25T22:31:28.595Z,73.04
2019-03-25T22:34:33.273Z,73.22
2019-03-25T22:37:38.062Z,73.36
2019-03-25T22:40:42.796Z,73.67
2019-03-25T22:43:47.523Z,73.88
2019-03-25T22:46:52.770Z,73.77
2019-03-25T22:49:57.205Z,73.74
2019-03-25T22:53:01.912Z,73.98
2019-03-25T22:56:06.349Z,74.05
2019-03-25T22:59:11.067Z,74.27
2019-03-25T23:02:15.503Z,73.57
2019-03-25T23:05:20.224Z,73.38
2019-03-25T23:08:24.661Z,73.21
2019-03-25T23:11:29.370Z,73.11
2019-03-25T23:14:33.805Z,72.98
2019-03-25T23:17:38.311Z,73.06
2019-03-25T23:20:43.056Z,72.44
2019-03-25T23:23:47.779Z,72.11
2019-03-25T23:26:52.216Z,71.91
2019-03-25T23:29:56.652Z,72.36
2019-03-25T23:33:01.082Z,72.41
2019-03-25T23:36:05.653Z,72.63
2019-03-25T23:39:10.102Z,72.29
2019-03-25T23:42:14.851Z,72.30
2019-03-25T23:45:19.667Z,73.31
2019-03-25T23:48:24.111Z,72.86
2019-03-25T23:51:28.938Z,73.16
2019-03-25T23:54:33.367Z,73.79
2019-03-25T23:57:38.202Z,73.68
